»·PEaware :: N326MC KTVL-KMFR

N326MC :: KTVL-KMFR

FLIGHT INFORMATION

Flight Status: Arrived
Operator: Privately registered:
United States
More flights under this callsign
Pilot: Anonymous 5456 (5456)
Aircraft: BEECH AIRCRAFT SUPER KING AIR 350
(B350)
More flights by this aircraft type
Origin: KTVL Lake Tahoe
United States
Destination: KMFR Rogue Valley Intl-Medford
United States
More flights between these airports :: More routes between these airports
Route: +SWR RBL ROMAE
File this flight plan on PilotEdge
Remarks:
Altitude:
(Current/Filed)
20,000ft
Speed:
(Current/Filed)
280kts
Departed: 09-Sep-19 12:05 PM
Arrived: 09-Sep-19 01:15 PM
Distance/Time
Traveled:
247nm/1:10
Distance/Time
To Go:
Arrived

Flight Plot

Page will automatically refresh every two minutes.

Flight plan parsing failed; only flown route is shown


Map Options




Map Legend


Flown Route
Filed Route
Departure Airport
Arrival Airport
Navaid (VOR, NDB)
Fix

Horizontal Profiles

Position Reports

Time Latitude Longitude Heading Altitude Ground
Speed
09-Sep-19 11:46 38.897296 -119.996592 283 6238ft 0kts
09-Sep-19 11:47 38.897296 -119.996592 283 6238ft 0kts
09-Sep-19 11:48 38.897296 -119.996592 283 6238ft 0kts
09-Sep-19 11:49 38.897296 -119.996592 283 6238ft 0kts
09-Sep-19 11:50 38.897296 -119.996592 283 6238ft 0kts
09-Sep-19 11:51 38.897296 -119.996592 283 6238ft 0kts
09-Sep-19 11:52 38.897296 -119.996592 283 6238ft 0kts
09-Sep-19 11:53 38.897296 -119.996592 283 6238ft 0kts
09-Sep-19 11:54 38.897296 -119.996592 283 6238ft 0kts
09-Sep-19 11:55 38.897296 -119.996592 283 6238ft 0kts
09-Sep-19 11:56 38.895781 -119.996727 171 6238ft 13kts
09-Sep-19 11:57 38.894526 -119.996150 193 6239ft 12kts
09-Sep-19 11:58 38.890207 -119.997411 193 6238ft 13kts
09-Sep-19 11:59 38.884420 -119.999109 194 6239ft 13kts
09-Sep-19 12:00 38.882665 -119.999629 92 6239ft 0kts
09-Sep-19 12:01 38.882665 -119.999629 92 6239ft 0kts
09-Sep-19 12:01 38.882665 -119.999629 92 6239ft 0kts
09-Sep-19 12:03 38.882665 -119.999629 92 6239ft 0kts
09-Sep-19 12:04 38.882897 -119.998497 12 6239ft 0kts
09-Sep-19 12:04 38.897652 -119.994299 12 6389ft 129kts
09-Sep-19 12:05 38.931263 -119.994851 346 8178ft 129kts
09-Sep-19 12:07 38.976785 -120.012507 339 9867ft 156kts
09-Sep-19 12:07 39.011669 -120.027185 314 11147ft 156kts
09-Sep-19 12:08 39.037366 -120.072261 304 12481ft 166kts
09-Sep-19 12:09 39.069134 -120.116857 306 13771ft 170kts
09-Sep-19 12:10 39.101458 -120.161224 305 15053ft 170kts
09-Sep-19 12:11 39.134019 -120.205966 304 16306ft 171kts
09-Sep-19 12:12 39.166652 -120.250882 304 17547ft 172kts
09-Sep-19 12:13 39.195587 -120.298974 291 18790ft 168kts
09-Sep-19 12:14 39.220444 -120.353229 293 19511ft 182kts
09-Sep-19 12:15 39.247161 -120.408901 293 20128ft 187kts
09-Sep-19 12:16 39.276374 -120.469914 294 20122ft 211kts
09-Sep-19 12:17 39.308584 -120.536951 295 20118ft 226kts
09-Sep-19 12:18 39.342459 -120.607632 295 20115ft 234kts
09-Sep-19 12:19 39.377242 -120.680478 295 20121ft 239kts
09-Sep-19 12:20 39.412426 -120.754450 295 20119ft 243kts
09-Sep-19 12:21 39.447792 -120.829044 295 20119ft 245kts
09-Sep-19 12:22 39.483535 -120.904614 295 20119ft 245kts
09-Sep-19 12:23 39.519215 -120.980217 295 20113ft 246kts
09-Sep-19 12:24 39.554934 -121.056132 296 20068ft 247kts
09-Sep-19 12:25 39.590538 -121.131967 296 20029ft 247kts
09-Sep-19 12:26 39.626146 -121.207995 296 19996ft 246kts
09-Sep-19 12:27 39.661587 -121.283860 296 19997ft 245kts
09-Sep-19 12:28 39.697017 -121.359891 296 19996ft 245kts
09-Sep-19 12:29 39.732286 -121.435757 297 19997ft 244kts
09-Sep-19 12:30 39.767382 -121.511439 297 19996ft 244kts
09-Sep-19 12:31 39.802372 -121.587099 297 19995ft 243kts
09-Sep-19 12:32 39.837249 -121.662654 297 20001ft 243kts
09-Sep-19 12:33 39.872128 -121.738418 297 20001ft 244kts
09-Sep-19 12:34 39.906969 -121.814293 297 20001ft 244kts
09-Sep-19 12:35 39.941848 -121.890401 297 19999ft 244kts
09-Sep-19 12:36 39.976603 -121.966441 297 19996ft 244kts
09-Sep-19 12:37 40.011239 -122.042429 297 19990ft 244kts
09-Sep-19 12:38 40.045834 -122.118528 297 19982ft 244kts
09-Sep-19 12:39 40.080508 -122.194947 297 19978ft 243kts
09-Sep-19 12:40 40.135196 -122.245230 343 19991ft 263kts
09-Sep-19 12:41 40.207425 -122.262667 342 19978ft 264kts
09-Sep-19 12:42 40.279845 -122.280453 342 19977ft 264kts
09-Sep-19 12:43 40.352252 -122.298352 342 19973ft 264kts
09-Sep-19 12:44 40.424612 -122.316277 342 19971ft 265kts
09-Sep-19 12:45 40.496746 -122.334185 343 19969ft 265kts
09-Sep-19 12:46 40.569233 -122.352222 343 19969ft 265kts
09-Sep-19 12:47 40.641546 -122.370253 343 19968ft 265kts
09-Sep-19 12:48 40.714177 -122.388408 343 19969ft 265kts
09-Sep-19 12:49 40.786775 -122.406590 343 19968ft 265kts
09-Sep-19 12:50 40.859376 -122.424821 343 19969ft 266kts
09-Sep-19 12:51 40.931823 -122.443045 343 19969ft 266kts
09-Sep-19 12:52 41.004662 -122.461410 343 19974ft 266kts
09-Sep-19 12:53 41.077251 -122.479762 343 19990ft 266kts
09-Sep-19 12:54 41.149621 -122.498094 343 20012ft 266kts
09-Sep-19 12:55 41.222118 -122.516490 343 20039ft 266kts
09-Sep-19 12:56 41.294904 -122.535036 344 20061ft 267kts
09-Sep-19 12:57 41.368235 -122.553730 344 20023ft 269kts
09-Sep-19 12:58 41.441611 -122.572490 344 20031ft 269kts
09-Sep-19 12:59 41.517996 -122.592090 345 19086ft 299kts
09-Sep-19 13:00 41.602719 -122.613435 345 17620ft 320kts
09-Sep-19 13:01 41.691007 -122.635889 346 16122ft 326kts
09-Sep-19 13:02 41.780138 -122.658797 345 14621ft 326kts
09-Sep-19 13:03 41.863385 -122.680251 345 13072ft 287kts
09-Sep-19 13:04 41.938377 -122.700521 345 11557ft 268kts
09-Sep-19 13:05 42.010451 -122.721271 345 10087ft 268kts
09-Sep-19 13:06 42.081840 -122.742806 345 10024ft 257kts
09-Sep-19 13:07 42.126563 -122.802553 283 10034ft 241kts
09-Sep-19 13:08 42.156841 -122.877530 342 10009ft 232kts
09-Sep-19 13:09 42.207919 -122.845820 45 8351ft 208kts
09-Sep-19 13:10 42.253257 -122.812363 348 5957ft 189kts
09-Sep-19 13:11 42.301001 -122.834686 337 3160ft 180kts
09-Sep-19 13:12 42.339274 -122.854667 336 1938ft 122kts
09-Sep-19 13:13 42.367959 -122.869615 337 1328ft 70kts
09-Sep-19 13:14 42.373202 -122.873574 236 1317ft 0kts
09-Sep-19 13:15 42.372058 -122.875221 240 1318ft 10kts
09-Sep-19 13:16 42.372421 -122.877834 203 1316ft 0kts
09-Sep-19 13:17 42.372421 -122.877834 203 1316ft 0kts

Navigation Log

Ident Type
Flight plan parsing failed, navigation log unavailable